Current Weather

Waukegan

Waukegan, Illinois (KUGN)

Report from: Wednesday, August 17, 2022 8:55 PM CDT
Current time: Wednesday, August 17, 2022 9:31 PM CDT

Nearby weather
Weather history
Weather forecast

Temperature16.7°C (62.1°F)
Dew point14.4°C (57.9°F)
Winds Calm
Visibility10 mi. (16.1 km)
Clouds Sky clear
Altimeter30.08 in.Hg (1019 mB)
Relative humidity86 %
Density altitude246 ft. (75 m)
Sea-level pressure101.8 kPa (1018 mB, 30.06 in.Hg)
Remarks Fully automated report
Automated weather observing station with precipitation discriminator
Flight conditions Visual Meteorological Conditions
Raw dataKUGN 180155Z AUTO 00000KT 10SM CLR 17/14 A3008 RMK AO2 SLP180 T01670144
An error has occurred. This application may no longer respond until reloaded. Reload 🗙